Detalii statie SOPEMA [00001CFB]

Toti senzorii

Date Temperatura solului [C]Precipitatii [mm]Voltaj baterie [mV]Leaf Wetness [Min]HC Air temperature [C]HC Relative humidity [%]Punctul de roua [C]
medieminmaxsumaultimatimpmedieminmaxmediemediemin
2019-04-19 19:00:00 0 7020 10.74 10.19 11.1 69.07 0
2019-04-19 20:00:00 0 6904 9.42 8.91 9.99 58.92 0
2019-04-19 21:00:00 0 6874 7.62 7.07 8.63 5.15 0
2019-04-19 22:00:00 0 6884 6.92 6.3 7.51 0 0 0
2019-04-19 23:00:00 0 6864 4.94 3.39 6.67 0 0 0
2019-04-20 00:00:00 0 6874 3.84 3.17 4.51 0 0 0
2019-04-20 01:00:00 0 6864 4.27 3.42 4.93 0 0 0
2019-04-20 02:00:00 0 6844 5.14 4.54 5.59 0 0 0
2019-04-20 03:00:00 0 6854 5.68 5.55 5.85 0 0 0
2019-04-20 04:00:00 0 6844 5.06 4.09 5.74 0 0 0
2019-04-20 05:00:00 0 6844 3.85 2.39 4.91 0 0 0
2019-04-20 06:00:00 0 6826 2.54 1.98 3.16 0 0 0
2019-04-20 07:00:00 0 6816 2.29 1.8 2.57 0 0 0
2019-04-20 08:00:00 0 6884 3.59 2.55 4.57 0 0 0
2019-04-20 09:00:00 0 6922 6.6 4.7 8.44 0 0 0
2019-04-20 10:00:00 0 7128 10.1 8.68 11.19 0 0 0
2019-04-20 11:00:00 0 7254 12.57 11.57 13.47 0 0 0
2019-04-20 12:00:00 0 7284 14.22 13.6 14.98 0 0 0
2019-04-20 13:00:00 0 7274 14.99 14.34 15.33 0 0 0
2019-04-20 14:00:00 0 7246 15.16 14.11 15.68 0 0 0
2019-04-20 15:00:00 0 7206 15.57 14.89 16.2 0 0 0
2019-04-20 16:00:00 0 7246 15.08 14.53 15.96 0 0 0
2019-04-20 17:00:00 0 7246 14.9 14.42 15.56 0 0 0
2019-04-20 18:00:00 0 7216 14.36 14.05 14.94 0 0 0
2019-04-20 19:00:00 0 7020 14.1 13.93 14.51 0 0 0
2019-04-20 20:00:00 0 6942 13.35 12.63 13.82 0 0 0
2019-04-20 21:00:00 0 6894 10.18 7.96 12.53 0 0 0
2019-04-20 22:00:00 0 6874 8.05 7.04 9.25 0 0 0
2019-04-20 23:00:00 0 6854 5.19 3.91 7.53 0 0 0
2019-04-21 00:00:00 0 6854 2.86 1.61 3.9 0 0 0
2019-04-21 01:00:00 0 6834 1.3 0.54 1.91 0 0 0
2019-04-21 02:00:00 0 6826 -0.17 -0.65 0.31 0 0 0
2019-04-21 03:00:00 0 6816 0.67 -0.92 3.31 0 0 0
2019-04-21 04:00:00 0 6826 1.44 0 3.18 0 0 0
2019-04-21 05:00:00 0 6806 0.21 -0.02 0.47 0 0 0
2019-04-21 06:00:00 0 6806 0.54 0.05 1.25 0 0 0
2019-04-21 07:00:00 0 6806 0.88 0.32 1.91 0 0 0
2019-04-21 08:00:00 0 6834 3.46 2.27 4.74 0 0 0
2019-04-21 09:00:00 0 6932 6.43 5.02 7.89 0 0 0
2019-04-21 10:00:00 0 7108 9.97 7.91 12.26 0 0 0
2019-04-21 11:00:00 0 7186 13.29 12.6 14.58 25.19 3 0
2019-04-21 12:00:00 0 7246 16.94 14.69 18.34 9.82 1.5 0
2019-04-21 13:00:00 0 7264 17.33 16.75 18.5 19.86 0
2019-04-21 14:00:00 0 7246 17.96 16.99 19.12 23.1 3.9 0
2019-04-21 15:00:00 0 7176 16.91 16.31 17.63 11.44 1.7 0
2019-04-21 16:00:00 0 7098 15.55 15.14 15.99 5.1 0
2019-04-21 17:00:00 0 6952 14.01 12.76 15.59 53.65 0
2019-04-21 18:00:00 0 6992 14.77 12.77 15.75 27.91 3.5 0